Time;durP1;ratioP1;P1;durP2;ratioP2;P2;SDS_P1;SDS_P2;PMS_P1;PMS_P2;Temp;Humidity;BMP_temperature;BMP_pressure;BME280_temperature;BME280_humidity;BME280_pressure;Samples;Min_cycle;Max_cycle;Signal;HPM_P1;HPM_P2
2021/07/07 00:02:13;;;;;;;1.60;0.93;;;20.20;78.50;;;;;;10497357;28;20599;-27
2021/07/07 00:07:37;;;;;;;5.17;1.00;;;20.30;78.50;;;;;;10505466;28;20184;-28
2021/07/07 00:12:59;;;;;;;3.13;0.70;;;20.20;78.20;;;;;;10537886;28;20220;-26
2021/07/07 00:18:21;;;;;;;1.77;0.73;;;20.20;78.10;;;;;;10538157;28;20188;-27
2021/07/07 00:23:45;;;;;;;2.67;0.90;;;20.30;78.00;;;;;;10502729;28;20196;-27
2021/07/07 00:29:07;;;;;;;2.80;0.77;;;20.30;78.00;;;;;;10496235;28;20229;-27
2021/07/07 00:34:29;;;;;;;1.97;0.87;;;20.30;77.70;;;;;;10497320;28;20204;-27
2021/07/07 00:39:52;;;;;;;3.00;0.90;;;20.20;77.50;;;;;;10495720;28;20560;-28
2021/07/07 00:45:15;;;;;;;2.73;1.17;;;20.30;77.70;;;;;;10498908;28;20579;-25
2021/07/07 00:50:37;;;;;;;2.13;1.10;;;20.20;77.20;;;;;;10515008;28;20212;-28
2021/07/07 00:56:02;;;;;;;3.27;1.10;;;20.20;77.20;;;;;;10535026;28;20283;-26
2021/07/07 01:01:24;;;;;;;2.53;1.00;;;20.20;76.60;;;;;;10527610;28;20208;-26
2021/07/07 01:06:46;;;;;;;1.70;0.70;;;20.20;76.30;;;;;;10514583;28;20203;-27
2021/07/07 01:12:11;;;;;;;2.60;0.80;;;20.20;76.70;;;;;;10495404;28;20745;-27
2021/07/07 01:17:33;;;;;;;2.90;0.90;;;20.20;75.30;;;;;;10495600;28;20208;-29
2021/07/07 01:22:57;;;;;;;2.50;0.80;;;20.20;75.00;;;;;;10523274;28;20591;-28
2021/07/07 01:28:20;;;;;;;3.47;1.00;;;20.20;75.00;;;;;;10534128;28;20633;-28
2021/07/07 01:33:43;;;;;;;1.57;0.63;;;20.20;74.70;;;;;;10537099;28;20223;-29
2021/07/07 01:39:08;;;;;;;2.67;0.83;;;20.20;74.60;;;;;;10535160;28;20211;-27
2021/07/07 01:44:31;;;;;;;1.77;0.63;;;20.20;74.70;;;;;;10533173;28;20199;-29
2021/07/07 01:49:53;;;;;;;2.10;0.90;;;20.20;74.60;;;;;;10536628;27;20231;-27
2021/07/07 01:55:17;;;;;;;2.10;1.10;;;20.20;74.60;;;;;;10527309;28;20199;-29
2021/07/07 02:00:39;;;;;;;2.40;0.80;;;20.20;74.60;;;;;;10523339;28;20211;-26
2021/07/07 02:06:02;;;;;;;1.73;0.80;;;20.10;74.60;;;;;;10534454;28;20195;-27
2021/07/07 02:11:25;;;;;;;2.20;0.80;;;20.20;74.60;;;;;;10533891;28;20825;-28
2021/07/07 02:16:47;;;;;;;1.77;0.80;;;20.20;74.60;;;;;;10535740;28;20188;-26
2021/07/07 02:22:09;;;;;;;1.30;0.80;;;20.10;74.40;;;;;;10542066;28;20223;-27
2021/07/07 02:27:33;;;;;;;2.37;0.80;;;20.10;74.30;;;;;;10542416;28;20202;-27
2021/07/07 02:32:55;;;;;;;2.37;1.10;;;20.10;74.20;;;;;;10542901;28;20246;-28
2021/07/07 02:38:20;;;;;;;3.77;1.00;;;20.10;74.20;;;;;;10538256;28;20215;-25
2021/07/07 02:43:43;;;;;;;2.40;0.70;;;20.10;74.20;;;;;;10500698;28;20200;-29
2021/07/07 02:49:05;;;;;;;2.40;1.00;;;20.10;74.00;;;;;;10499796;28;20231;-28
2021/07/07 02:54:27;;;;;;;3.30;1.10;;;20.10;74.10;;;;;;10523808;28;20211;-28
2021/07/07 02:59:51;;;;;;;1.70;0.73;;;20.10;73.90;;;;;;10501786;28;20216;-27
2021/07/07 03:05:13;;;;;;;3.77;1.23;;;20.10;73.90;;;;;;10505967;28;20188;-27
2021/07/07 03:10:35;;;;;;;5.60;1.00;;;20.10;74.00;;;;;;10541020;28;20219;-28
2021/07/07 03:15:59;;;;;;;3.63;1.20;;;20.10;74.00;;;;;;10515539;28;20204;-27
2021/07/07 03:21:21;;;;;;;2.73;0.90;;;20.10;73.80;;;;;;10521794;28;20586;-26
2021/07/07 03:26:43;;;;;;;7.10;1.00;;;20.10;73.70;;;;;;10497781;28;20668;-28
2021/07/07 03:32:07;;;;;;;2.03;0.90;;;20.10;73.70;;;;;;10509312;28;20247;-27
2021/07/07 03:37:29;;;;;;;1.30;0.87;;;20.10;73.60;;;;;;10506317;28;20275;-30
2021/07/07 03:42:51;;;;;;;2.77;1.20;;;20.00;73.30;;;;;;10537107;28;20687;-29
2021/07/07 03:48:16;;;;;;;1.13;0.87;;;20.00;73.30;;;;;;10540181;28;20195;-26
2021/07/07 03:53:38;;;;;;;2.83;0.93;;;20.10;73.10;;;;;;10539898;28;20192;-29
2021/07/07 03:59:00;;;;;;;4.03;1.20;;;20.00;73.10;;;;;;10538655;28;20219;-31
2021/07/07 04:04:23;;;;;;;1.83;1.00;;;20.10;73.00;;;;;;10518913;28;20199;-26
2021/07/07 04:09:46;;;;;;;2.10;0.80;;;20.10;72.80;;;;;;10500645;28;20721;-28
2021/07/07 04:15:09;;;;;;;1.67;1.10;;;20.10;72.70;;;;;;10530849;28;20199;-27
2021/07/07 04:20:34;;;;;;;3.73;1.10;;;20.00;72.80;;;;;;10531057;28;20212;-27
2021/07/07 04:25:56;;;;;;;3.17;0.87;;;20.00;72.80;;;;;;10497677;28;20203;-28
2021/07/07 04:31:18;;;;;;;1.53;1.00;;;20.10;73.00;;;;;;10513031;28;20228;-27
2021/07/07 04:36:42;;;;;;;4.47;1.00;;;20.10;73.00;;;;;;10534719;22;20215;-24
2021/07/07 04:42:04;;;;;;;2.53;0.90;;;20.00;72.90;;;;;;10397818;28;20590;-24
2021/07/07 04:47:26;;;;;;;3.97;1.00;;;20.00;72.90;;;;;;10327999;28;20226;-24
2021/07/07 04:52:50;;;;;;;3.13;1.30;;;20.00;72.80;;;;;;10354067;28;20218;-25
2021/07/07 04:58:12;;;;;;;3.37;1.00;;;20.00;72.60;;;;;;10359420;28;20215;-24
2021/07/07 05:03:34;;;;;;;2.27;1.00;;;20.10;72.70;;;;;;10325477;28;20200;-25
2021/07/07 05:08:58;;;;;;;2.70;1.20;;;20.10;72.60;;;;;;10284107;28;20587;-26
2021/07/07 05:14:20;;;;;;;2.53;0.90;;;20.00;72.50;;;;;;10346934;28;20204;-23
2021/07/07 05:19:42;;;;;;;2.87;0.90;;;20.10;72.70;;;;;;10286144;28;20296;-23
2021/07/07 05:25:07;;;;;;;1.73;0.90;;;20.00;73.00;;;;;;10352590;28;20191;-24
2021/07/07 05:30:29;;;;;;;1.97;0.90;;;20.10;73.30;;;;;;10353558;28;20219;-23
2021/07/07 05:35:51;;;;;;;4.47;1.10;;;20.00;73.40;;;;;;10363723;28;20225;-24
2021/07/07 05:41:15;;;;;;;2.80;1.10;;;20.00;73.50;;;;;;10319596;28;20620;-24
2021/07/07 05:46:37;;;;;;;3.23;1.10;;;20.10;73.60;;;;;;10323857;28;20219;-25
2021/07/07 05:51:59;;;;;;;3.77;1.27;;;20.10;73.40;;;;;;10324170;28;20219;-25
2021/07/07 05:57:25;;;;;;;3.07;1.23;;;20.10;73.20;;;;;;10319100;28;20226;-26
2021/07/07 06:02:48;;;;;;;3.00;1.10;;;19.90;71.30;;;;;;10320173;28;20608;-24
2021/07/07 06:08:10;;;;;;;2.93;1.00;;;19.60;71.30;;;;;;10342791;28;20219;-25
2021/07/07 06:13:33;;;;;;;3.13;1.00;;;19.40;72.40;;;;;;10534009;28;20223;-25
2021/07/07 06:18:56;;;;;;;2.27;1.13;;;19.30;72.60;;;;;;10296044;28;20288;-25
2021/07/07 06:24:18;;;;;;;4.17;1.10;;;19.30;73.00;;;;;;10452343;28;20207;-25
2021/07/07 06:29:41;;;;;;;5.57;0.97;;;19.30;73.20;;;;;;10534400;28;20288;-25
2021/07/07 06:35:04;;;;;;;2.00;0.93;;;19.30;73.40;;;;;;10390929;28;20210;-25
2021/07/07 06:40:26;;;;;;;5.47;1.20;;;19.30;74.50;;;;;;10321490;28;20602;-24
2021/07/07 06:45:50;;;;;;;3.23;1.07;;;19.30;73.90;;;;;;10351338;28;20195;-25
2021/07/07 06:51:12;;;;;;;3.13;1.10;;;19.40;73.10;;;;;;10359056;28;20702;-28
2021/07/07 06:56:34;;;;;;;2.53;1.13;;;19.40;72.90;;;;;;10321135;28;20233;-25
2021/07/07 07:01:57;;;;;;;5.20;1.60;;;19.40;73.30;;;;;;10303496;28;20196;-24
2021/07/07 07:07:20;;;;;;;3.87;0.93;;;19.50;73.80;;;;;;10285707;28;20227;-25
2021/07/07 07:12:42;;;;;;;7.43;1.20;;;19.50;73.60;;;;;;10292047;28;20220;-24
2021/07/07 07:18:06;;;;;;;3.33;1.03;;;19.60;73.00;;;;;;10288286;28;20219;-25
2021/07/07 07:23:28;;;;;;;2.80;1.30;;;19.70;73.70;;;;;;10350628;28;20206;-26
2021/07/07 07:28:50;;;;;;;3.50;0.80;;;19.80;74.30;;;;;;10322726;28;20720;-25
2021/07/07 07:34:14;;;;;;;4.57;1.20;;;19.90;73.40;;;;;;10326888;28;20206;-26
2021/07/07 07:39:42;;;;;;;4.60;1.40;;;19.90;74.00;;;;;;10346685;28;20753;-25
2021/07/07 07:45:04;;;;;;;3.43;0.87;;;20.00;73.80;;;;;;10325896;28;20313;-25
2021/07/07 07:50:28;;;;;;;5.30;1.37;;;20.00;73.70;;;;;;10326264;28;20211;-24
2021/07/07 07:55:50;;;;;;;4.17;1.27;;;20.10;73.40;;;;;;10325200;28;20203;-25
2021/07/07 08:01:12;;;;;;;2.80;1.27;;;20.20;73.60;;;;;;10312416;28;20220;-25
2021/07/07 08:06:36;;;;;;;2.67;1.20;;;20.20;72.70;;;;;;10285792;28;20223;-25
2021/07/07 08:11:58;;;;;;;1.23;0.80;;;20.30;72.10;;;;;;10317438;28;20602;-25
2021/07/07 08:17:20;;;;;;;1.40;0.80;;;20.30;71.90;;;;;;10307947;28;20694;-24
2021/07/07 08:22:44;;;;;;;2.47;0.90;;;20.30;71.60;;;;;;10315176;28;20203;-24
2021/07/07 08:28:06;;;;;;;2.80;1.10;;;20.30;72.40;;;;;;10316651;28;20602;-23
2021/07/07 08:33:28;;;;;;;2.57;1.00;;;20.30;73.80;;;;;;10321976;28;20231;-25
2021/07/07 08:38:52;;;;;;;1.67;0.97;;;20.30;73.20;;;;;;10338798;28;20252;-25
2021/07/07 08:44:14;;;;;;;2.13;0.77;;;20.30;73.80;;;;;;10337891;28;20432;-24
2021/07/07 08:49:36;;;;;;;2.63;0.97;;;20.30;74.70;;;;;;10325278;28;20238;-24
2021/07/07 08:55:00;;;;;;;3.77;0.90;;;20.30;75.00;;;;;;10325170;28;20203;-25
2021/07/07 09:00:24;;;;;;;1.60;1.07;;;20.30;75.00;;;;;;10292243;28;20239;-25
2021/07/07 09:05:52;;;;;;;2.93;0.80;;;20.30;75.20;;;;;;10327312;28;20206;-26
2021/07/07 09:11:18;;;;;;;1.37;0.97;;;20.30;75.20;;;;;;10323875;28;20345;-24
2021/07/07 09:16:47;;;;;;;3.13;0.60;;;20.30;75.40;;;;;;10325537;28;20211;-24
2021/07/07 09:22:11;;;;;;;4.20;1.20;;;20.40;74.80;;;;;;10344780;28;20194;-25
2021/07/07 09:27:37;;;;;;;2.57;0.90;;;20.40;74.00;;;;;;10335590;28;20221;-25
2021/07/07 09:32:59;;;;;;;3.47;0.80;;;20.50;74.80;;;;;;10323299;28;20214;-25
2021/07/07 09:38:21;;;;;;;2.80;1.10;;;20.50;74.40;;;;;;10347776;28;20238;-25
2021/07/07 09:43:52;;;;;;;3.60;1.20;;;20.40;74.40;;;;;;10364794;28;20190;-26
2021/07/07 09:49:14;;;;;;;6.23;1.40;;;20.50;72.20;;;;;;10363333;28;20219;-23
2021/07/07 09:54:36;;;;;;;7.17;1.13;;;20.50;72.80;;;;;;10315577;28;20202;-24
2021/07/07 10:00:00;;;;;;;2.70;1.10;;;20.50;73.60;;;;;;10282327;28;20699;-23
2021/07/07 10:05:23;;;;;;;7.70;1.23;;;20.50;74.00;;;;;;10356925;28;20221;-22
2021/07/07 10:10:46;;;;;;;4.13;1.30;;;20.50;73.40;;;;;;10331345;28;20230;-24
2021/07/07 10:16:09;;;;;;;5.93;1.43;;;20.50;72.60;;;;;;10322501;28;20203;-23
2021/07/07 10:21:32;;;;;;;3.63;1.43;;;20.50;73.00;;;;;;10328321;28;20210;-25
2021/07/07 10:26:57;;;;;;;2.93;1.30;;;20.50;73.50;;;;;;10290517;28;20215;-24
2021/07/07 10:32:23;;;;;;;3.73;1.10;;;20.50;72.50;;;;;;10283702;28;20226;-25
2021/07/07 10:37:53;;;;;;;4.40;1.10;;;20.50;72.80;;;;;;10336387;22;20239;-31
2021/07/07 10:43:41;;;;;;;4.13;1.13;;;20.50;73.30;;;;;;10353140;28;20195;-33
2021/07/07 10:49:19;;;;;;;7.40;1.97;;;20.50;71.50;;;;;;10318374;28;20215;-34
2021/07/07 10:54:45;;;;;;;4.50;1.17;;;20.50;71.90;;;;;;10330994;28;20218;-33
2021/07/07 11:00:29;;;;;;;5.27;1.40;;;20.50;72.40;;;;;;10351717;28;20270;-35
2021/07/07 11:05:53;;;;;;;4.47;1.40;;;20.50;71.90;;;;;;10537440;28;20184;-33
2021/07/07 11:11:23;;;;;;;6.07;1.40;;;20.50;71.50;;;;;;10354176;28;20237;-29
2021/07/07 11:16:47;;;;;;;5.17;1.40;;;20.50;71.40;;;;;;10328988;28;20206;-35
2021/07/07 11:22:12;;;;;;;2.93;1.50;;;20.60;69.70;;;;;;10327699;28;20195;-32
2021/07/07 11:27:35;;;;;;;4.63;1.27;;;20.60;71.00;;;;;;10330252;28;20219;-34
2021/07/07 11:33:03;;;;;;;4.93;1.47;;;20.60;70.20;;;;;;10334234;28;20223;-33
2021/07/07 11:38:27;;;;;;;5.73;1.47;;;20.60;70.70;;;;;;10375376;28;20299;-32
2021/07/07 11:43:49;;;;;;;5.93;1.60;;;20.60;70.00;;;;;;10326479;28;20195;-30
2021/07/07 11:49:12;;;;;;;3.87;1.30;;;20.60;70.60;;;;;;10326848;28;20594;-32
2021/07/07 11:54:48;;;;;;;3.27;1.30;;;20.60;70.00;;;;;;10326613;28;20598;-32
2021/07/07 12:00:11;;;;;;;3.20;0.90;;;20.60;70.10;;;;;;10357661;28;20689;-29
2021/07/07 12:05:33;;;;;;;2.73;1.63;;;20.60;69.80;;;;;;10539025;28;20196;-31
2021/07/07 12:11:05;;;;;;;9.33;2.10;;;20.60;69.60;;;;;;10487111;28;20617;-31
2021/07/07 12:16:32;;;;;;;3.37;1.10;;;20.60;68.70;;;;;;10322429;28;20677;-34
2021/07/07 12:21:55;;;;;;;4.77;1.40;;;20.70;68.30;;;;;;10325667;28;20265;-32
2021/07/07 12:27:21;;;;;;;8.03;1.43;;;20.70;66.90;;;;;;10325728;28;20223;-33
2021/07/07 12:32:43;;;;;;;3.77;1.40;;;20.70;67.00;;;;;;10332073;28;20214;-33
2021/07/07 12:38:05;;;;;;;4.30;1.43;;;20.70;67.80;;;;;;10344829;28;20227;-30
2021/07/07 12:43:38;;;;;;;2.57;1.20;;;20.60;68.80;;;;;;10355161;28;20191;-33
2021/07/07 12:49:01;;;;;;;5.33;1.53;;;20.60;68.90;;;;;;10324850;28;20223;-30
2021/07/07 12:54:23;;;;;;;4.23;1.30;;;20.60;69.20;;;;;;10318542;28;20230;-34
2021/07/07 12:59:55;;;;;;;5.70;1.10;;;20.60;70.20;;;;;;10328589;28;20219;-29
2021/07/07 13:05:18;;;;;;;4.57;1.33;;;20.60;69.40;;;;;;10327067;28;20188;-32
2021/07/07 13:10:42;;;;;;;5.60;1.40;;;20.60;70.50;;;;;;10324086;28;20223;-32
2021/07/07 13:16:23;;;;;;;3.77;1.20;;;20.60;71.60;;;;;;10324006;28;20207;-33
2021/07/07 13:21:50;;;;;;;5.23;1.27;;;20.50;71.60;;;;;;10319488;28;20222;-30
2021/07/07 13:27:13;;;;;;;2.77;1.20;;;20.50;72.00;;;;;;10509405;28;20219;-31
2021/07/07 13:32:37;;;;;;;4.27;1.50;;;20.50;72.00;;;;;;10411478;28;20723;-31
2021/07/07 13:37:59;;;;;;;3.80;1.10;;;20.50;72.80;;;;;;10429214;28;20780;-35
2021/07/07 13:43:24;;;;;;;17.27;1.73;;;20.50;72.40;;;;;;10322675;28;20195;-31
2021/07/07 13:48:47;;;;;;;6.67;1.43;;;20.50;71.60;;;;;;10321695;28;20305;-34
2021/07/07 13:54:09;;;;;;;5.40;1.50;;;20.50;70.80;;;;;;10333516;28;20219;-33
2021/07/07 13:59:31;;;;;;;7.90;1.33;;;20.50;70.40;;;;;;10322825;28;20721;-32
2021/07/07 14:04:55;;;;;;;10.00;1.73;;;20.50;71.00;;;;;;10339223;28;20658;-31
2021/07/07 14:10:17;;;;;;;6.53;1.43;;;20.50;71.30;;;;;;10324760;28;20749;-31
2021/07/07 14:15:39;;;;;;;6.03;1.57;;;20.50;71.10;;;;;;10315512;28;20203;-33
2021/07/07 14:21:02;;;;;;;5.40;1.47;;;20.60;69.20;;;;;;10314103;28;20222;-35
2021/07/07 14:26:25;;;;;;;5.40;1.43;;;20.60;69.70;;;;;;10289678;28;20199;-30
2021/07/07 14:31:47;;;;;;;13.87;2.13;;;20.60;69.70;;;;;;10288221;28;20228;-31
2021/07/07 14:37:11;;;;;;;5.80;1.43;;;20.60;69.70;;;;;;10319091;28;20230;-32
2021/07/07 14:42:33;;;;;;;6.73;1.67;;;20.60;69.50;;;;;;10382334;28;20187;-32
2021/07/07 14:47:56;;;;;;;5.77;1.20;;;20.70;70.20;;;;;;10540751;28;20216;-31
2021/07/07 14:53:19;;;;;;;4.30;1.10;;;20.70;70.50;;;;;;10430776;28;20230;-32
2021/07/07 14:58:42;;;;;;;7.13;1.80;;;20.70;70.10;;;;;;10327613;28;20227;-34
2021/07/07 15:04:04;;;;;;;7.70;1.57;;;20.70;69.70;;;;;;10338157;28;20669;-33
2021/07/07 15:09:28;;;;;;;4.47;1.20;;;20.60;70.50;;;;;;10329911;28;20215;-33
2021/07/07 15:14:50;;;;;;;6.83;1.60;;;20.60;71.00;;;;;;10328554;28;20215;-32
2021/07/07 15:20:12;;;;;;;5.43;1.33;;;20.50;71.60;;;;;;10322430;28;20208;-32
2021/07/07 15:25:36;;;;;;;6.40;1.47;;;20.60;71.60;;;;;;10288045;28;20199;-34
2021/07/07 15:30:58;;;;;;;7.77;1.67;;;20.60;71.60;;;;;;10306247;28;20269;-33
2021/07/07 15:36:22;;;;;;;8.20;1.50;;;20.60;72.30;;;;;;10322782;28;20218;-36
2021/07/07 15:41:46;;;;;;;8.07;1.23;;;20.50;73.00;;;;;;10323652;28;20219;-31
2021/07/07 15:47:08;;;;;;;7.70;1.47;;;20.50;72.70;;;;;;10325249;28;20203;-32
2021/07/07 15:52:30;;;;;;;3.80;1.10;;;20.50;72.80;;;;;;10327826;28;20219;-34
2021/07/07 15:57:54;;;;;;;4.32;1.45;;;20.50;73.10;;;;;;10324597;28;20803;-35
2021/07/07 16:03:17;;;;;;;5.13;1.50;;;20.70;72.70;;;;;;10321937;28;20278;-35
2021/07/07 16:08:39;;;;;;;2.93;1.30;;;20.60;73.20;;;;;;10328981;28;20223;-32
2021/07/07 16:14:03;;;;;;;4.43;1.20;;;20.60;73.10;;;;;;10329442;28;20697;-33
2021/07/07 16:19:25;;;;;;;2.83;1.10;;;20.50;73.70;;;;;;10321220;28;20215;-31
2021/07/07 16:24:47;;;;;;;4.60;1.60;;;20.60;73.80;;;;;;10287900;28;20238;-30
2021/07/07 16:30:13;;;;;;;4.37;1.47;;;20.50;74.10;;;;;;10285963;28;20702;-33
2021/07/07 16:35:35;;;;;;;3.77;1.37;;;20.50;73.40;;;;;;10302941;28;20212;-31
2021/07/07 16:40:57;;;;;;;4.37;1.23;;;20.50;73.40;;;;;;10307845;23;20238;-26
2021/07/07 16:46:21;;;;;;;5.60;1.27;;;20.50;73.60;;;;;;10291145;28;20234;-26
2021/07/07 16:51:43;;;;;;;6.17;1.10;;;20.60;74.10;;;;;;10283866;28;20595;-24
2021/07/07 16:57:05;;;;;;;4.10;1.40;;;20.50;73.80;;;;;;10275622;28;20196;-25
2021/07/07 17:02:29;;;;;;;4.70;1.47;;;20.50;73.60;;;;;;10281702;28;20231;-25
2021/07/07 17:07:51;;;;;;;5.00;1.30;;;20.50;73.90;;;;;;10286487;28;20199;-26
2021/07/07 17:13:18;;;;;;;3.10;1.20;;;20.60;74.40;;;;;;10284816;28;20223;-25
2021/07/07 17:18:42;;;;;;;5.30;1.30;;;20.60;74.80;;;;;;10284843;28;20223;-24
2021/07/07 17:24:05;;;;;;;6.60;1.30;;;20.50;74.10;;;;;;10284231;28;20196;-25
2021/07/07 17:29:27;;;;;;;3.47;1.37;;;20.50;74.00;;;;;;10285041;28;20228;-25
2021/07/07 17:34:50;;;;;;;3.40;1.50;;;20.50;74.10;;;;;;10284220;28;20227;-24
2021/07/07 17:40:12;;;;;;;2.17;1.20;;;20.50;74.30;;;;;;10283456;28;20231;-24
2021/07/07 17:45:35;;;;;;;4.27;1.10;;;20.50;74.40;;;;;;10283795;28;20196;-24
2021/07/07 17:50:58;;;;;;;1.67;1.00;;;20.50;74.50;;;;;;10277998;28;20231;-24
2021/07/07 17:56:20;;;;;;;3.83;1.33;;;20.50;75.10;;;;;;10284142;28;20203;-25
2021/07/07 18:01:42;;;;;;;2.50;1.30;;;20.50;75.30;;;;;;10282543;28;20219;-25
2021/07/07 18:07:06;;;;;;;2.00;1.10;;;20.50;74.70;;;;;;10284394;28;20235;-25
2021/07/07 18:12:29;;;;;;;3.23;1.30;;;20.50;74.90;;;;;;10279234;28;20232;-26
2021/07/07 18:17:51;;;;;;;2.40;1.30;;;20.50;75.10;;;;;;10277019;28;20192;-24
2021/07/07 18:23:14;;;;;;;2.67;1.17;;;20.50;75.10;;;;;;10274883;28;20222;-28
2021/07/07 18:28:36;;;;;;;3.03;1.40;;;20.50;75.10;;;;;;10282427;28;20229;-28
2021/07/07 18:33:59;;;;;;;2.60;1.37;;;20.50;75.30;;;;;;10268364;28;20227;-25
2021/07/07 18:39:22;;;;;;;1.87;1.17;;;20.50;75.30;;;;;;10266782;28;20232;-25
2021/07/07 18:44:44;;;;;;;2.17;1.20;;;20.40;75.30;;;;;;10260658;28;20197;-25
2021/07/07 18:50:08;;;;;;;1.40;1.00;;;20.40;75.30;;;;;;10256304;28;20600;-25
2021/07/07 18:55:31;;;;;;;2.67;1.37;;;20.50;75.50;;;;;;10265191;28;20227;-24
2021/07/07 19:00:53;;;;;;;2.30;1.10;;;20.40;75.40;;;;;;10266125;28;20227;-25
2021/07/07 19:06:15;;;;;;;2.77;1.43;;;20.50;75.50;;;;;;10269281;28;20200;-24
2021/07/07 19:11:39;;;;;;;2.47;1.23;;;20.50;75.50;;;;;;10260509;28;20269;-25
2021/07/07 19:17:01;;;;;;;3.20;1.13;;;20.40;75.40;;;;;;10257492;28;20212;-24
2021/07/07 19:22:23;;;;;;;3.07;1.27;;;20.50;75.60;;;;;;10262315;28;20224;-24
2021/07/07 19:27:49;;;;;;;2.40;1.10;;;20.40;75.60;;;;;;10266154;28;20564;-25
2021/07/07 19:33:11;;;;;;;4.27;1.33;;;20.40;75.70;;;;;;10275001;28;20274;-25
2021/07/07 19:38:34;;;;;;;2.50;1.30;;;20.50;75.80;;;;;;10261978;28;20239;-26
2021/07/07 19:43:57;;;;;;;2.60;1.30;;;20.50;76.10;;;;;;10266520;28;20216;-25
2021/07/07 19:49:19;;;;;;;2.83;1.17;;;20.40;76.00;;;;;;10286212;28;20223;-24
2021/07/07 19:54:42;;;;;;;1.77;1.20;;;20.40;76.20;;;;;;10283708;28;20707;-24
2021/07/07 20:00:07;;;;;;;3.00;1.20;;;20.50;76.40;;;;;;10283206;28;20235;-25
2021/07/07 20:05:30;;;;;;;2.93;1.37;;;20.40;76.50;;;;;;10283657;28;20239;-25
2021/07/07 20:10:52;;;;;;;3.20;1.50;;;20.40;76.40;;;;;;10284096;28;20227;-26
2021/07/07 20:16:17;;;;;;;2.30;1.10;;;20.40;76.50;;;;;;10286450;28;20219;-25
2021/07/07 20:21:39;;;;;;;6.10;1.70;;;20.40;76.80;;;;;;10287171;28;20216;-24
2021/07/07 20:27:02;;;;;;;4.43;1.67;;;20.40;77.40;;;;;;10289099;28;20203;-24
2021/07/07 20:32:25;;;;;;;4.53;1.70;;;20.40;77.60;;;;;;10287875;28;20765;-24
2021/07/07 20:37:47;;;;;;;2.43;1.63;;;20.40;78.60;;;;;;10342646;28;20219;-24
2021/07/07 20:43:10;;;;;;;3.60;1.53;;;20.40;77.90;;;;;;10286110;28;20192;-25
2021/07/07 20:48:33;;;;;;;3.50;1.53;;;20.40;78.00;;;;;;10280676;28;20223;-25
2021/07/07 20:53:55;;;;;;;2.90;1.47;;;20.40;78.10;;;;;;10273292;28;20226;-25
2021/07/07 20:59:18;;;;;;;3.10;1.67;;;20.40;78.30;;;;;;10285764;28;20709;-24
2021/07/07 21:04:41;;;;;;;3.13;1.67;;;20.40;78.60;;;;;;10285101;28;20196;-25
2021/07/07 21:10:04;;;;;;;2.30;1.40;;;20.40;78.50;;;;;;10285154;28;20227;-24
2021/07/07 21:15:26;;;;;;;5.03;2.00;;;20.40;78.60;;;;;;10287063;28;20223;-25
2021/07/07 21:20:50;;;;;;;1.77;1.50;;;20.50;78.80;;;;;;10284504;28;20587;-24
2021/07/07 21:26:13;;;;;;;3.67;2.03;;;20.40;78.80;;;;;;10286758;28;20196;-25
2021/07/07 21:31:35;;;;;;;4.30;1.83;;;20.40;78.90;;;;;;10283277;28;20215;-24
2021/07/07 21:36:59;;;;;;;4.20;1.90;;;20.40;78.60;;;;;;10285224;28;20199;-24
2021/07/07 21:42:21;;;;;;;2.53;1.70;;;20.40;78.30;;;;;;10283473;28;20226;-24
2021/07/07 21:47:43;;;;;;;2.60;1.87;;;20.40;78.30;;;;;;10277696;28;20579;-25
2021/07/07 21:53:07;;;;;;;3.40;1.90;;;20.40;78.40;;;;;;10283770;28;20769;-25
2021/07/07 21:58:29;;;;;;;4.43;1.83;;;20.40;78.30;;;;;;10283649;28;20715;-25
2021/07/07 22:03:51;;;;;;;7.50;2.13;;;20.40;78.50;;;;;;10282843;28;20196;-25
2021/07/07 22:09:14;;;;;;;4.27;1.80;;;20.40;78.50;;;;;;10283709;28;20220;-24
2021/07/07 22:14:36;;;;;;;5.63;2.27;;;20.40;78.10;;;;;;10283242;28;20212;-25
2021/07/07 22:19:58;;;;;;;3.70;2.03;;;20.40;78.10;;;;;;10282733;28;20586;-26
2021/07/07 22:25:22;;;;;;;3.47;2.00;;;20.40;78.10;;;;;;10246500;28;20195;-26
2021/07/07 22:30:45;;;;;;;5.13;2.03;;;20.40;78.10;;;;;;10281939;28;20223;-25
2021/07/07 22:36:07;;;;;;;3.73;2.13;;;20.40;77.80;;;;;;10286809;28;20223;-24
2021/07/07 22:41:30;;;;;;;4.33;2.30;;;20.40;77.80;;;;;;10431512;22;20718;-28
2021/07/07 22:46:52;;;;;;;4.67;2.27;;;20.40;78.10;;;;;;10499039;28;20196;-28
2021/07/07 22:52:15;;;;;;;5.37;2.00;;;20.30;78.20;;;;;;10492649;28;20208;-30
2021/07/07 22:57:39;;;;;;;3.97;2.13;;;20.30;78.30;;;;;;10513150;28;20200;-28
2021/07/07 23:03:03;;;;;;;4.67;2.40;;;20.30;78.30;;;;;;10542350;28;20208;-29
2021/07/07 23:08:27;;;;;;;3.10;1.97;;;20.30;78.60;;;;;;10541716;28;20552;-31
2021/07/07 23:13:50;;;;;;;4.27;1.80;;;20.30;78.60;;;;;;10517898;28;20699;-28
2021/07/07 23:19:12;;;;;;;3.63;2.10;;;20.30;78.60;;;;;;10525895;28;20211;-28
2021/07/07 23:24:34;;;;;;;6.07;1.90;;;20.30;78.60;;;;;;10537961;28;20188;-29
2021/07/07 23:29:58;;;;;;;4.63;2.03;;;20.30;78.80;;;;;;10540965;28;20223;-30
2021/07/07 23:35:20;;;;;;;4.20;2.00;;;20.30;78.70;;;;;;10492770;28;20224;-28
2021/07/07 23:40:42;;;;;;;3.47;2.07;;;20.30;78.70;;;;;;10498576;28;20228;-28
2021/07/07 23:46:06;;;;;;;4.67;2.40;;;20.20;78.50;;;;;;10483713;28;20200;-28
2021/07/07 23:51:28;;;;;;;2.67;1.83;;;20.30;78.50;;;;;;10456649;28;20220;-29
2021/07/07 23:56:50;;;;;;;6.77;2.17;;;20.30;78.20;;;;;;10456638;28;20236;-27
